Time;durP1;ratioP1;P1;durP2;ratioP2;P2;SDS_P1;SDS_P2;PMS_P1;PMS_P2;Temp;Humidity;BMP_temperature;BMP_pressure;BME280_temperature;BME280_humidity;BME280_pressure;Samples;Min_cycle;Max_cycle;Signal;HPM_P1;HPM_P2
2021/01/07 00:00:12;;;;;;;2.20;1.60;;;22.10;52.50;;;;;;5095800;28;20227;-68
2021/01/07 00:02:38;;;;;;;1.60;1.30;;;22.10;52.50;;;;;;5095654;28;20204;-66
2021/01/07 00:05:06;;;;;;;2.13;1.50;;;22.10;52.50;;;;;;5077486;28;20416;-67
2021/01/07 00:07:32;;;;;;;2.00;1.40;;;22.10;52.60;;;;;;5077514;28;20676;-67
2021/01/07 00:09:58;;;;;;;2.10;1.90;;;22.10;52.60;;;;;;5095468;28;20447;-67
2021/01/07 00:12:24;;;;;;;1.87;1.40;;;22.10;53.10;;;;;;5095520;28;20419;-67
2021/01/07 00:14:50;;;;;;;1.90;1.40;;;22.10;52.60;;;;;;5095758;28;20426;-67
2021/01/07 00:17:15;;;;;;;1.60;1.30;;;22.10;52.60;;;;;;5095372;28;20200;-67
2021/01/07 00:19:41;;;;;;;2.57;1.30;;;22.10;52.60;;;;;;5095303;28;20189;-66
2021/01/07 00:22:06;;;;;;;1.70;1.30;;;22.00;52.50;;;;;;5095280;28;20305;-67
2021/01/07 00:24:32;;;;;;;1.77;1.50;;;22.00;52.50;;;;;;5077241;28;20182;-67
2021/01/07 00:26:58;;;;;;;2.53;1.40;;;22.00;52.50;;;;;;5095246;28;20294;-67
2021/01/07 00:29:23;;;;;;;1.67;1.30;;;22.00;52.60;;;;;;5095287;28;20170;-67
2021/01/07 00:31:49;;;;;;;1.70;1.50;;;22.00;52.60;;;;;;5095492;28;20200;-66
2021/01/07 00:34:14;;;;;;;1.80;1.23;;;22.00;52.60;;;;;;5095468;28;20248;-67
2021/01/07 00:36:40;;;;;;;1.50;1.10;;;22.00;52.60;;;;;;5095170;28;20632;-67
2021/01/07 00:39:06;;;;;;;2.30;1.47;;;22.00;52.60;;;;;;5095080;28;20170;-67
2021/01/07 00:41:31;;;;;;;1.43;1.23;;;22.00;52.70;;;;;;5074940;28;20213;-67
2021/01/07 00:43:57;;;;;;;2.33;1.60;;;22.00;52.60;;;;;;5094989;28;20201;-67
2021/01/07 00:46:22;;;;;;;2.53;1.70;;;22.00;53.20;;;;;;5095164;28;20174;-67
2021/01/07 00:48:48;;;;;;;2.43;1.37;;;21.90;52.60;;;;;;5076645;28;20722;-67
2021/01/07 00:51:15;;;;;;;1.90;1.30;;;22.00;52.70;;;;;;5095061;28;20184;-67
2021/01/07 00:53:40;;;;;;;2.00;1.30;;;21.90;52.60;;;;;;5094986;28;20654;-67
2021/01/07 00:56:06;;;;;;;3.67;1.30;;;21.90;52.70;;;;;;5076563;28;20416;-67
2021/01/07 00:58:31;;;;;;;1.97;1.47;;;21.90;52.70;;;;;;5094767;28;20652;-67
2021/01/07 01:00:57;;;;;;;2.03;1.80;;;21.90;52.70;;;;;;5094457;28;20216;-67
2021/01/07 01:03:23;;;;;;;1.87;1.47;;;21.90;52.70;;;;;;5094835;28;20174;-67
2021/01/07 01:05:49;;;;;;;2.07;1.33;;;21.90;52.70;;;;;;5094765;28;20181;-67
2021/01/07 01:08:16;;;;;;;3.30;1.30;;;21.90;52.70;;;;;;5094676;28;20228;-66
2021/01/07 01:10:43;;;;;;;1.57;1.27;;;21.90;52.70;;;;;;5094741;28;20416;-67
2021/01/07 01:13:09;;;;;;;1.57;1.43;;;21.90;52.70;;;;;;5094398;28;20407;-67
2021/01/07 01:15:35;;;;;;;1.33;1.10;;;21.90;52.70;;;;;;5094596;28;20778;-67
2021/01/07 01:18:00;;;;;;;1.90;1.40;;;21.90;52.70;;;;;;5094274;28;20254;-67
2021/01/07 01:20:26;;;;;;;3.40;1.40;;;21.90;52.70;;;;;;5094619;28;20177;-67
2021/01/07 01:22:51;;;;;;;1.90;1.23;;;21.90;52.70;;;;;;5094144;28;20220;-67
2021/01/07 01:25:17;;;;;;;2.10;1.63;;;21.90;52.80;;;;;;5094174;28;20177;-67
2021/01/07 01:27:44;;;;;;;3.20;1.33;;;21.90;52.70;;;;;;5093983;28;20190;-67
2021/01/07 01:30:12;;;;;;;1.53;1.20;;;21.80;52.70;;;;;;5094378;28;20682;-67
2021/01/07 01:32:39;;;;;;;2.20;1.40;;;21.90;52.70;;;;;;5093947;28;20798;-65
2021/01/07 01:35:06;;;;;;;2.23;1.47;;;21.90;52.80;;;;;;5094302;28;20431;-67
2021/01/07 01:37:33;;;;;;;1.80;1.23;;;21.80;52.70;;;;;;5093718;28;20443;-67
2021/01/07 01:39:58;;;;;;;2.07;1.13;;;21.80;52.70;;;;;;5094200;28;20434;-67
2021/01/07 01:42:25;;;;;;;1.87;1.40;;;21.90;52.70;;;;;;5093759;28;20874;-67
2021/01/07 01:44:52;;;;;;;1.80;1.47;;;21.90;52.80;;;;;;5093763;28;20174;-66
2021/01/07 01:47:18;;;;;;;2.27;1.33;;;21.90;52.80;;;;;;5093854;28;20937;-67
2021/01/07 01:49:46;;;;;;;2.13;1.43;;;21.80;52.70;;;;;;5093713;28;20506;-67
2021/01/07 01:52:11;;;;;;;2.77;2.00;;;21.90;52.80;;;;;;5093695;28;20178;-67
2021/01/07 01:54:37;;;;;;;2.20;1.40;;;21.80;52.70;;;;;;5093649;28;20894;-67
2021/01/07 01:57:06;;;;;;;1.70;1.30;;;21.80;52.70;;;;;;5093518;28;20193;-67
2021/01/07 01:59:34;;;;;;;1.33;1.07;;;21.80;52.70;;;;;;5093503;28;20196;-67
2021/01/07 02:02:26;;;;;;;2.17;1.50;;;21.90;52.80;;;;;;5093485;28;20451;-67
2021/01/07 02:04:51;;;;;;;1.77;1.20;;;21.80;53.30;;;;;;5089947;28;20469;-68
2021/01/07 02:07:20;;;;;;;2.50;1.60;;;21.80;52.80;;;;;;5075157;28;20443;-67
2021/01/07 02:09:47;;;;;;;1.60;1.40;;;21.80;52.80;;;;;;5093271;28;20176;-67
2021/01/07 02:12:13;;;;;;;1.53;1.20;;;21.80;52.80;;;;;;5092882;28;20399;-67
2021/01/07 02:14:44;;;;;;;1.50;1.40;;;21.80;52.80;;;;;;5093433;28;20906;-67
2021/01/07 02:17:10;;;;;;;1.90;1.30;;;21.80;52.80;;;;;;5093187;28;20423;-67
2021/01/07 02:19:36;;;;;;;1.40;1.13;;;21.80;52.80;;;;;;5093314;28;20431;-67
2021/01/07 02:22:02;;;;;;;1.87;1.53;;;21.80;53.30;;;;;;5093452;28;20809;-67
2021/01/07 02:24:29;;;;;;;1.87;1.30;;;21.80;52.80;;;;;;5093302;28;20420;-67
2021/01/07 02:27:02;;;;;;;1.50;1.30;;;21.80;52.80;;;;;;5093086;28;20204;-68
2021/01/07 02:29:27;;;;;;;1.90;1.30;;;21.80;52.80;;;;;;5093189;28;20399;-67
2021/01/07 02:31:53;;;;;;;1.53;1.30;;;21.80;52.80;;;;;;5093155;28;20491;-67
2021/01/07 02:34:18;;;;;;;2.17;1.57;;;21.80;52.80;;;;;;5093125;28;20671;-67
2021/01/07 02:36:44;;;;;;;1.77;1.40;;;21.70;52.70;;;;;;5093214;28;20177;-67
2021/01/07 02:39:10;;;;;;;1.80;1.30;;;21.80;52.80;;;;;;5093061;28;20170;-68
2021/01/07 02:41:36;;;;;;;2.23;1.83;;;21.80;52.80;;;;;;5092989;28;20198;-68
2021/01/07 02:44:01;;;;;;;1.50;1.37;;;21.80;52.80;;;;;;5093088;28;20170;-67
2021/01/07 02:46:27;;;;;;;1.70;1.33;;;21.80;52.80;;;;;;5092973;28;20686;-67
2021/01/07 02:48:52;;;;;;;1.60;1.50;;;21.80;52.80;;;;;;5092850;28;20190;-67
2021/01/07 02:51:18;;;;;;;3.03;1.50;;;21.70;52.70;;;;;;5092987;28;20181;-67
2021/01/07 02:53:44;;;;;;;2.13;1.50;;;21.70;52.80;;;;;;5092920;28;20178;-67
2021/01/07 02:56:09;;;;;;;1.20;1.00;;;21.70;52.70;;;;;;5093212;28;20166;-67
2021/01/07 02:58:35;;;;;;;1.50;1.10;;;21.70;52.70;;;;;;5074809;28;20205;-67
2021/01/07 03:01:00;;;;;;;2.17;1.30;;;21.70;52.80;;;;;;5093415;28;20560;-67
2021/01/07 03:03:26;;;;;;;1.80;1.40;;;21.70;52.80;;;;;;5092862;28;20589;-67
2021/01/07 03:05:52;;;;;;;1.60;1.20;;;21.70;52.80;;;;;;5092841;28;20565;-67
2021/01/07 03:08:17;;;;;;;1.40;1.30;;;21.70;52.80;;;;;;5092739;28;20189;-67
2021/01/07 03:10:43;;;;;;;1.63;1.17;;;21.70;52.70;;;;;;5092811;28;20210;-67
2021/01/07 03:13:09;;;;;;;1.53;1.10;;;21.70;52.70;;;;;;5092719;28;20170;-68
2021/01/07 03:15:34;;;;;;;1.73;1.30;;;21.70;52.70;;;;;;5092781;28;20174;-67
2021/01/07 03:18:00;;;;;;;3.27;1.70;;;21.70;52.70;;;;;;5092483;28;20209;-67
2021/01/07 03:20:25;;;;;;;1.70;1.40;;;21.70;52.70;;;;;;5093097;28;20166;-67
2021/01/07 03:22:51;;;;;;;2.20;1.57;;;21.80;52.80;;;;;;5092853;28;20202;-67
2021/01/07 03:25:17;;;;;;;2.30;1.33;;;21.80;52.80;;;;;;5095749;28;20188;-68
2021/01/07 03:27:43;;;;;;;2.13;1.80;;;21.70;52.70;;;;;;5096639;28;20189;-67
2021/01/07 03:30:09;;;;;;;1.50;1.27;;;21.70;52.70;;;;;;5096659;28;20566;-67
2021/01/07 03:32:38;;;;;;;1.80;1.00;;;21.80;52.70;;;;;;5096720;28;20419;-67
2021/01/07 03:35:05;;;;;;;1.77;1.20;;;21.80;52.70;;;;;;5096498;28;20408;-67
2021/01/07 03:37:31;;;;;;;1.90;1.30;;;21.80;52.80;;;;;;5096446;28;20949;-67
2021/01/07 03:39:57;;;;;;;1.90;1.47;;;21.80;52.70;;;;;;5096301;28;20511;-67
2021/01/07 03:42:22;;;;;;;2.97;1.23;;;21.80;52.90;;;;;;5096397;28;20549;-67
2021/01/07 03:44:48;;;;;;;1.23;1.00;;;21.80;52.70;;;;;;5096170;28;20570;-66
2021/01/07 03:47:13;;;;;;;2.27;1.30;;;21.80;52.70;;;;;;5096098;28;20185;-67
2021/01/07 03:49:39;;;;;;;1.57;1.47;;;21.80;52.90;;;;;;5096025;28;20687;-67
2021/01/07 03:52:05;;;;;;;1.70;1.13;;;21.80;52.70;;;;;;5077873;28;20188;-67
2021/01/07 03:54:30;;;;;;;2.50;1.37;;;21.80;52.70;;;;;;5096066;28;20154;-67
2021/01/07 03:56:56;;;;;;;2.17;1.50;;;21.80;52.70;;;;;;5096205;28;20268;-67
2021/01/07 03:59:22;;;;;;;1.80;1.30;;;21.80;52.70;;;;;;5095860;28;20536;-68
2021/01/07 04:01:47;;;;;;;2.10;1.40;;;21.80;52.70;;;;;;5095735;28;20263;-67
2021/01/07 04:04:13;;;;;;;1.30;1.10;;;21.80;52.70;;;;;;5096000;28;20169;-68
2021/01/07 04:06:39;;;;;;;2.40;1.50;;;21.80;52.70;;;;;;5077512;28;20201;-67
2021/01/07 04:09:05;;;;;;;2.57;1.50;;;21.80;53.30;;;;;;5095636;28;20489;-66
2021/01/07 04:11:31;;;;;;;1.93;1.30;;;21.80;52.70;;;;;;5095950;28;20162;-68
2021/01/07 04:13:57;;;;;;;4.60;1.30;;;21.80;52.70;;;;;;5095846;28;20408;-67
2021/01/07 04:16:23;;;;;;;1.63;1.20;;;21.80;52.70;;;;;;5095740;28;20287;-67
2021/01/07 04:18:49;;;;;;;1.40;1.10;;;21.80;52.70;;;;;;5095265;28;20275;-67
2021/01/07 04:21:18;;;;;;;1.27;1.03;;;21.80;52.70;;;;;;5095413;28;20455;-67
2021/01/07 04:23:44;;;;;;;1.77;1.50;;;21.80;52.70;;;;;;5095453;28;20570;-67
2021/01/07 04:26:09;;;;;;;1.63;1.30;;;21.80;52.70;;;;;;5095330;28;20396;-67
2021/01/07 04:28:35;;;;;;;1.70;1.10;;;21.70;52.60;;;;;;5095194;28;20642;-67
2021/01/07 04:31:01;;;;;;;1.10;1.00;;;21.70;52.60;;;;;;5095543;28;20184;-68
2021/01/07 04:33:26;;;;;;;1.60;1.20;;;21.70;52.70;;;;;;5095349;28;20636;-67
2021/01/07 04:35:52;;;;;;;1.60;1.17;;;21.70;52.60;;;;;;5094895;28;20234;-67
2021/01/07 04:38:18;;;;;;;1.80;1.33;;;21.80;52.70;;;;;;5094990;28;20240;-68
2021/01/07 04:40:43;;;;;;;1.83;1.40;;;21.70;52.70;;;;;;5095813;28;20165;-67
2021/01/07 04:43:09;;;;;;;1.30;1.10;;;21.70;52.70;;;;;;5095054;28;20169;-68
2021/01/07 04:45:35;;;;;;;1.80;1.13;;;21.70;52.70;;;;;;5094942;28;20181;-66
2021/01/07 04:48:01;;;;;;;1.90;1.30;;;21.70;52.70;;;;;;5094822;28;20204;-67
2021/01/07 04:50:26;;;;;;;1.90;1.33;;;21.70;52.70;;;;;;5094913;28;20159;-67
2021/01/07 04:52:52;;;;;;;1.60;1.10;;;21.70;52.70;;;;;;5095002;28;20404;-67
2021/01/07 04:55:18;;;;;;;2.13;1.10;;;21.70;52.70;;;;;;5094778;28;20536;-67
2021/01/07 04:57:44;;;;;;;1.30;1.13;;;21.70;52.70;;;;;;5094491;28;20255;-67
2021/01/07 05:00:11;;;;;;;1.40;1.00;;;21.70;52.70;;;;;;5094684;28;20638;-67
2021/01/07 05:02:38;;;;;;;1.60;1.17;;;21.70;52.70;;;;;;5095332;28;20455;-67
2021/01/07 05:05:07;;;;;;;1.97;1.30;;;21.60;52.70;;;;;;5094563;28;20958;-67
2021/01/07 05:07:37;;;;;;;1.47;1.10;;;21.60;52.70;;;;;;5094700;28;20485;-67
2021/01/07 05:10:08;;;;;;;1.50;1.20;;;21.60;52.70;;;;;;5094782;28;20419;-67
2021/01/07 05:12:33;;;;;;;1.70;1.10;;;21.60;52.80;;;;;;5094662;28;20408;-67
2021/01/07 05:14:59;;;;;;;2.47;1.30;;;21.60;52.80;;;;;;5094680;28;20442;-68
2021/01/07 05:17:25;;;;;;;1.60;1.20;;;21.60;52.80;;;;;;5094434;28;20725;-67
2021/01/07 05:19:50;;;;;;;2.03;1.10;;;21.60;52.80;;;;;;5076054;28;20186;-68
2021/01/07 05:22:16;;;;;;;1.40;1.20;;;21.60;52.80;;;;;;5076070;28;20709;-67
2021/01/07 05:24:42;;;;;;;1.50;1.10;;;21.60;52.80;;;;;;5076048;28;20173;-67
2021/01/07 05:27:17;;;;;;;1.27;1.10;;;21.60;52.80;;;;;;5094373;28;20276;-67
2021/01/07 05:29:43;;;;;;;1.27;1.10;;;21.60;52.80;;;;;;5094047;28;20419;-67
2021/01/07 05:32:11;;;;;;;1.47;1.10;;;21.60;52.80;;;;;;5094067;28;20416;-67
2021/01/07 05:34:50;;;;;;;1.20;0.97;;;21.60;52.80;;;;;;5094343;28;20392;-67
2021/01/07 05:37:20;;;;;;;1.47;1.10;;;21.60;52.70;;;;;;5093950;28;20890;-67
2021/01/07 05:39:47;;;;;;;1.47;1.37;;;21.60;52.70;;;;;;5093874;28;20486;-67
2021/01/07 05:42:13;;;;;;;1.60;1.20;;;21.60;52.70;;;;;;5075642;28;20466;-67
2021/01/07 05:44:45;;;;;;;1.20;1.00;;;21.60;52.70;;;;;;5093839;28;20396;-67
2021/01/07 05:47:27;;;;;;;2.27;1.20;;;21.60;52.70;;;;;;5093262;28;20481;-67
2021/01/07 05:49:53;;;;;;;1.50;1.10;;;21.70;52.70;;;;;;5094035;28;20475;-67
2021/01/07 05:52:21;;;;;;;1.47;1.17;;;21.60;52.60;;;;;;5094231;28;20414;-67
2021/01/07 05:54:48;;;;;;;1.50;1.20;;;21.70;52.70;;;;;;5093567;28;20922;-68
2021/01/07 05:57:14;;;;;;;1.67;1.47;;;21.70;52.60;;;;;;5075606;28;20439;-67
2021/01/07 05:59:41;;;;;;;1.20;1.00;;;21.70;52.60;;;;;;5093554;28;20442;-66
2021/01/07 06:02:12;;;;;;;1.40;1.10;;;21.70;52.60;;;;;;5093412;28;20651;-67
2021/01/07 06:04:42;;;;;;;1.20;1.10;;;21.80;52.60;;;;;;5094132;28;20384;-67
2021/01/07 06:07:08;;;;;;;1.07;0.87;;;21.80;52.60;;;;;;5093371;28;20443;-68
2021/01/07 06:09:35;;;;;;;1.20;1.00;;;21.80;52.60;;;;;;5093378;28;20412;-67
2021/01/07 06:12:01;;;;;;;1.40;1.20;;;21.80;52.60;;;;;;5093316;28;20189;-68
2021/01/07 06:14:27;;;;;;;1.50;1.10;;;21.80;52.50;;;;;;5093357;28;20412;-68
2021/01/07 06:16:56;;;;;;;4.07;1.10;;;21.80;53.10;;;;;;5093251;28;20436;-67
2021/01/07 06:19:38;;;;;;;1.47;1.07;;;21.80;52.50;;;;;;5093244;28;20611;-67
2021/01/07 06:22:17;;;;;;;1.37;1.00;;;21.90;52.60;;;;;;5093481;28;20846;-67
2021/01/07 06:24:44;;;;;;;1.70;1.20;;;21.80;52.50;;;;;;5093195;28;20414;-66
2021/01/07 06:27:30;;;;;;;1.50;1.20;;;21.80;52.50;;;;;;5093109;28;20967;-67
2021/01/07 06:30:11;;;;;;;1.53;1.40;;;21.80;52.50;;;;;;5093475;28;20420;-67
2021/01/07 06:32:41;;;;;;;1.67;1.27;;;21.80;52.50;;;;;;5093335;28;20411;-67
2021/01/07 06:35:16;;;;;;;1.20;0.97;;;21.90;52.60;;;;;;5093095;28;20410;-67
2021/01/07 06:37:43;;;;;;;1.63;1.30;;;21.80;52.50;;;;;;5092352;28;20438;-67
2021/01/07 06:40:11;;;;;;;1.73;1.10;;;21.90;52.60;;;;;;5074929;28;20439;-67
2021/01/07 06:42:38;;;;;;;1.30;1.00;;;21.80;52.50;;;;;;5092851;28;20483;-67
2021/01/07 06:45:06;;;;;;;1.40;1.20;;;21.90;52.50;;;;;;5093315;28;20408;-67
2021/01/07 06:47:32;;;;;;;1.27;0.97;;;21.90;52.50;;;;;;5093099;28;20929;-67
2021/01/07 06:50:00;;;;;;;1.30;1.00;;;21.90;52.50;;;;;;5093496;28;20761;-67
2021/01/07 06:52:26;;;;;;;1.37;1.10;;;21.90;52.50;;;;;;5074883;28;20430;-67
2021/01/07 06:54:55;;;;;;;1.40;1.27;;;21.80;52.50;;;;;;5093183;28;20404;-66
2021/01/07 06:57:22;;;;;;;1.23;0.90;;;21.80;52.50;;;;;;5092994;28;20453;-67
2021/01/07 07:00:01;;;;;;;1.50;1.33;;;21.80;52.50;;;;;;5077164;28;20411;-67
2021/01/07 07:02:27;;;;;;;1.23;1.00;;;21.80;52.40;;;;;;5097413;28;20462;-67
2021/01/07 07:05:05;;;;;;;1.20;1.00;;;21.80;52.40;;;;;;5097384;28;20403;-67
2021/01/07 07:07:31;;;;;;;1.70;1.10;;;21.90;52.50;;;;;;5096783;28;20457;-67
2021/01/07 07:10:18;;;;;;;2.87;1.30;;;21.90;53.10;;;;;;5096803;28;20407;-67
2021/01/07 07:12:52;;;;;;;1.33;1.23;;;21.80;52.40;;;;;;5096685;28;20220;-67
2021/01/07 07:15:22;;;;;;;1.70;1.20;;;21.90;52.50;;;;;;5096941;28;20476;-66
2021/01/07 07:17:51;;;;;;;1.30;1.10;;;21.90;52.50;;;;;;5096671;28;20435;-67
2021/01/07 07:20:21;;;;;;;1.30;1.10;;;21.90;52.50;;;;;;5096685;28;20399;-66
2021/01/07 07:22:47;;;;;;;1.97;1.70;;;21.80;52.40;;;;;;5096507;28;20970;-67
2021/01/07 07:25:21;;;;;;;1.33;1.10;;;21.80;52.40;;;;;;5096452;28;20450;-67
2021/01/07 07:27:52;;;;;;;1.50;1.17;;;21.80;52.40;;;;;;5096556;28;20971;-67
2021/01/07 07:30:24;;;;;;;1.33;1.00;;;21.90;52.50;;;;;;5096663;28;20850;-67
2021/01/07 07:32:50;;;;;;;1.20;1.00;;;21.90;52.50;;;;;;5096363;28;20407;-67
2021/01/07 07:35:23;;;;;;;1.67;1.07;;;21.90;52.50;;;;;;5096308;28;20793;-67
2021/01/07 07:37:50;;;;;;;1.83;1.07;;;21.90;52.40;;;;;;5096170;28;20197;-67
2021/01/07 07:40:36;;;;;;;1.60;1.33;;;21.90;52.40;;;;;;5096195;28;20450;-67
2021/01/07 07:43:03;;;;;;;1.87;1.47;;;21.90;52.40;;;;;;5096091;28;20458;-66
2021/01/07 07:45:31;;;;;;;2.07;1.17;;;21.90;52.40;;;;;;5096344;28;20407;-67
2021/01/07 07:47:57;;;;;;;1.63;1.50;;;21.90;52.30;;;;;;5096034;28;20427;-67
2021/01/07 07:50:28;;;;;;;1.17;1.00;;;21.90;52.20;;;;;;5096028;28;20903;-67
2021/01/07 07:53:12;;;;;;;1.50;1.10;;;21.90;52.20;;;;;;5095938;28;20925;-67
2021/01/07 07:55:40;;;;;;;1.73;1.20;;;21.90;52.80;;;;;;5096216;28;20851;-67
2021/01/07 07:58:09;;;;;;;1.83;1.40;;;21.90;52.30;;;;;;5095987;28;20419;-67
2021/01/07 08:00:35;;;;;;;1.30;1.17;;;21.90;52.30;;;;;;5096099;28;20419;-68
2021/01/07 08:03:01;;;;;;;1.30;1.03;;;21.90;52.20;;;;;;5095813;28;20554;-67
2021/01/07 08:05:28;;;;;;;1.77;1.20;;;21.90;52.20;;;;;;5096298;28;20412;-66
2021/01/07 08:07:54;;;;;;;1.77;1.23;;;21.90;52.20;;;;;;5077403;28;20242;-68
2021/01/07 08:10:21;;;;;;;1.50;1.07;;;21.90;52.30;;;;;;5095533;28;20403;-67
2021/01/07 08:12:47;;;;;;;1.77;1.37;;;21.90;52.20;;;;;;5095784;28;20412;-68
2021/01/07 08:15:26;;;;;;;1.60;1.30;;;21.90;52.20;;;;;;5095559;28;20461;-69
2021/01/07 08:17:51;;;;;;;1.63;1.30;;;22.00;52.30;;;;;;5095599;28;20929;-68
2021/01/07 08:20:26;;;;;;;1.80;1.30;;;21.90;52.20;;;;;;5095485;28;20461;-70
2021/01/07 08:22:56;;;;;;;1.80;1.47;;;21.90;52.20;;;;;;5095376;28;20207;-71
2021/01/07 08:25:25;;;;;;;1.30;1.20;;;22.00;52.20;;;;;;5095313;28;20410;-71
2021/01/07 08:27:56;;;;;;;1.80;1.30;;;22.00;52.20;;;;;;5095525;28;20428;-69
2021/01/07 08:30:24;;;;;;;2.07;1.27;;;22.00;52.30;;;;;;5095947;28;20388;-71
2021/01/07 08:32:52;;;;;;;1.50;1.40;;;22.00;52.20;;;;;;5077087;28;20446;-71
2021/01/07 08:35:20;;;;;;;1.37;1.20;;;22.00;52.20;;;;;;5095065;28;20785;-69
2021/01/07 08:37:46;;;;;;;1.50;1.40;;;22.00;52.20;;;;;;5095079;28;20463;-68
2021/01/07 08:40:11;;;;;;;1.50;1.40;;;22.00;52.80;;;;;;5095094;28;20442;-68
2021/01/07 08:42:39;;;;;;;1.67;1.47;;;22.00;52.20;;;;;;5094885;28;20205;-68
2021/01/07 08:45:06;;;;;;;1.73;1.33;;;22.00;52.20;;;;;;5076766;28;20177;-67
2021/01/07 08:47:32;;;;;;;1.80;1.30;;;22.00;52.20;;;;;;5095157;28;20969;-67
2021/01/07 08:50:16;;;;;;;1.40;1.13;;;22.00;52.20;;;;;;5095184;28;20389;-69
2021/01/07 08:52:56;;;;;;;1.63;1.30;;;22.00;52.10;;;;;;5095261;28;20396;-69
2021/01/07 08:55:45;;;;;;;1.47;1.20;;;22.00;52.10;;;;;;5095000;28;20761;-68
2021/01/07 08:58:18;;;;;;;1.57;1.10;;;22.00;52.10;;;;;;5095071;28;20573;-68
2021/01/07 09:00:47;;;;;;;1.87;1.63;;;22.00;52.10;;;;;;5094692;28;20388;-67
2021/01/07 09:03:12;;;;;;;2.23;1.20;;;22.00;52.10;;;;;;5094614;28;20782;-68
2021/01/07 09:05:38;;;;;;;1.60;1.43;;;22.00;52.10;;;;;;5076462;28;20416;-68
2021/01/07 09:08:08;;;;;;;1.50;1.33;;;22.10;52.10;;;;;;5094738;28;20197;-68
2021/01/07 09:10:34;;;;;;;1.53;1.20;;;22.10;52.20;;;;;;5094465;28;20181;-67
2021/01/07 09:13:13;;;;;;;1.70;1.10;;;22.10;52.20;;;;;;5094388;28;20415;-66
2021/01/07 09:15:39;;;;;;;2.20;1.30;;;22.10;52.20;;;;;;5076258;28;20430;-67
2021/01/07 09:18:05;;;;;;;1.30;1.20;;;22.10;52.20;;;;;;5094340;28;20966;-66
2021/01/07 09:20:35;;;;;;;2.50;1.43;;;22.10;52.20;;;;;;5094475;28;20161;-65
2021/01/07 09:23:14;;;;;;;1.20;1.10;;;22.10;52.30;;;;;;5094065;28;20203;-67
2021/01/07 09:25:40;;;;;;;1.50;1.40;;;22.10;52.20;;;;;;5076068;28;20400;-66
2021/01/07 09:30:32;;;;;;;1.27;1.10;;;22.10;52.30;;;;;;5115607;22;20550;-69
2021/01/07 09:32:59;;;;;;;1.30;1.10;;;22.20;52.30;;;;;;5114486;28;20161;-68
2021/01/07 09:35:25;;;;;;;1.50;1.20;;;22.10;52.20;;;;;;5114901;28;20767;-67
2021/01/07 09:37:52;;;;;;;1.30;1.10;;;22.10;52.20;;;;;;5114223;28;20430;-67
2021/01/07 09:40:18;;;;;;;2.13;1.27;;;22.10;52.30;;;;;;5114356;28;20379;-68
2021/01/07 09:42:44;;;;;;;1.80;1.30;;;22.20;52.30;;;;;;5114183;28;20448;-66
2021/01/07 09:45:11;;;;;;;2.07;1.13;;;22.10;52.80;;;;;;5114253;28;20476;-67
2021/01/07 09:47:38;;;;;;;1.50;1.40;;;22.10;52.20;;;;;;5114136;28;20196;-67
2021/01/07 09:50:12;;;;;;;1.37;1.13;;;22.20;52.30;;;;;;5114448;28;20749;-67
2021/01/07 09:52:38;;;;;;;1.27;1.17;;;22.20;52.30;;;;;;5114146;28;20784;-64
2021/01/07 09:55:06;;;;;;;1.53;1.10;;;22.20;52.30;;;;;;5114065;28;20421;-66
2021/01/07 09:57:32;;;;;;;1.43;1.03;;;22.20;52.30;;;;;;5114235;28;20200;-66
2021/01/07 09:59:58;;;;;;;2.60;1.33;;;22.20;52.30;;;;;;5112183;28;20456;-67
2021/01/07 10:02:24;;;;;;;1.30;1.20;;;22.20;52.30;;;;;;5111740;28;20956;-68
2021/01/07 10:04:49;;;;;;;1.33;1.20;;;22.20;52.30;;;;;;5112304;28;20267;-67
2021/01/07 10:07:15;;;;;;;1.30;1.10;;;22.20;52.30;;;;;;5111806;28;20220;-67
2021/01/07 10:09:41;;;;;;;1.53;1.30;;;22.20;52.30;;;;;;5112151;28;20165;-68
2021/01/07 10:12:08;;;;;;;1.63;1.10;;;22.20;52.30;;;;;;5111873;28;20181;-69
2021/01/07 10:14:34;;;;;;;1.37;1.10;;;22.20;52.30;;;;;;5112721;28;20405;-66
2021/01/07 10:17:05;;;;;;;1.80;1.40;;;22.20;52.30;;;;;;5113680;28;20425;-67
2021/01/07 10:19:35;;;;;;;1.87;1.40;;;22.20;52.30;;;;;;5114198;28;20439;-69
2021/01/07 10:22:07;;;;;;;1.80;1.27;;;22.20;52.30;;;;;;5112260;28;20439;-67
2021/01/07 10:24:38;;;;;;;1.40;1.10;;;22.20;52.30;;;;;;5114523;28;20900;-67
2021/01/07 10:27:05;;;;;;;2.03;1.40;;;22.20;52.30;;;;;;5113906;28;20438;-67
2021/01/07 10:29:35;;;;;;;2.50;1.50;;;22.20;52.30;;;;;;5113447;28;20937;-67
2021/01/07 10:32:05;;;;;;;2.17;1.60;;;22.20;52.20;;;;;;5113802;28;20426;-67
2021/01/07 10:34:37;;;;;;;2.00;1.60;;;22.20;52.80;;;;;;5113002;28;20395;-67
2021/01/07 10:37:04;;;;;;;1.80;1.50;;;22.20;52.20;;;;;;5113421;28;20430;-67
2021/01/07 10:39:41;;;;;;;3.03;2.00;;;22.20;52.20;;;;;;5112620;28;20425;-68
2021/01/07 10:42:09;;;;;;;2.37;1.70;;;22.30;52.20;;;;;;5113396;28;20456;-69
2021/01/07 10:44:37;;;;;;;2.50;1.70;;;22.20;52.10;;;;;;5113582;28;20387;-72
2021/01/07 10:47:06;;;;;;;2.10;1.77;;;22.20;52.20;;;;;;5112132;28;20509;-71
2021/01/07 10:49:33;;;;;;;2.43;1.70;;;22.20;52.20;;;;;;5113412;28;20577;-72
2021/01/07 10:52:07;;;;;;;2.57;1.90;;;22.20;52.20;;;;;;5113538;28;20399;-71
2021/01/07 10:54:48;;;;;;;5.50;2.33;;;22.30;52.30;;;;;;5112013;28;20414;-71
2021/01/07 10:57:42;;;;;;;2.30;1.70;;;22.20;52.20;;;;;;5112001;28;20858;-70
2021/01/07 11:00:18;;;;;;;3.07;2.10;;;22.20;52.20;;;;;;5113566;28;20472;-71
2021/01/07 11:02:58;;;;;;;4.90;2.23;;;22.20;52.20;;;;;;5113167;28;20498;-71
2021/01/07 11:05:30;;;;;;;2.63;2.13;;;22.20;52.10;;;;;;5113563;28;20393;-71
2021/01/07 11:08:31;;;;;;;2.67;2.30;;;22.30;52.20;;;;;;5113309;28;20426;-72
2021/01/07 11:10:59;;;;;;;3.57;2.07;;;22.30;52.10;;;;;;5112725;28;20426;-71
2021/01/07 11:13:54;;;;;;;4.30;2.90;;;22.30;52.10;;;;;;5113445;28;20409;-70
2021/01/07 11:16:26;;;;;;;3.63;2.27;;;22.30;52.10;;;;;;5113691;28;20882;-71
2021/01/07 11:18:57;;;;;;;3.60;2.67;;;22.30;52.10;;;;;;5113092;28;20418;-70
2021/01/07 11:21:28;;;;;;;5.70;3.53;;;22.30;52.10;;;;;;5112425;28;20886;-72
2021/01/07 11:23:56;;;;;;;3.70;2.60;;;22.30;51.90;;;;;;5113102;28;20391;-71
2021/01/07 11:26:22;;;;;;;5.33;3.10;;;22.30;51.90;;;;;;5113076;28;20383;-75
2021/01/07 11:28:51;;;;;;;3.70;2.73;;;22.30;51.90;;;;;;5112929;28;20525;-70
2021/01/07 11:31:18;;;;;;;4.53;2.60;;;22.40;51.90;;;;;;5113207;28;20425;-71
2021/01/07 11:33:45;;;;;;;5.47;2.33;;;22.40;51.90;;;;;;5112919;28;20410;-71
2021/01/07 11:36:17;;;;;;;5.00;3.00;;;22.40;51.90;;;;;;5112965;28;20764;-76
2021/01/07 11:38:58;;;;;;;4.17;2.77;;;22.40;51.90;;;;;;5112624;28;20431;-69
2021/01/07 11:41:45;;;;;;;5.97;2.93;;;22.40;51.80;;;;;;5112943;28;20434;-69
2021/01/07 11:44:24;;;;;;;4.73;2.57;;;22.40;51.90;;;;;;5113143;28;20448;-71
2021/01/07 11:46:51;;;;;;;3.40;2.37;;;22.40;51.90;;;;;;5115016;28;20411;-76
2021/01/07 11:49:18;;;;;;;5.90;3.13;;;22.40;51.90;;;;;;5116584;27;20435;-73
2021/01/07 11:51:51;;;;;;;3.57;2.30;;;22.50;52.00;;;;;;5116437;28;20958;-75
2021/01/07 11:54:17;;;;;;;3.03;2.50;;;22.50;52.00;;;;;;5116496;28;20417;-72
2021/01/07 11:56:44;;;;;;;4.10;2.77;;;22.50;52.00;;;;;;5116283;28;20411;-72
2021/01/07 11:59:09;;;;;;;4.80;2.90;;;22.50;52.00;;;;;;5116562;28;20500;-76
2021/01/07 12:01:37;;;;;;;3.73;2.80;;;22.50;52.00;;;;;;5117232;28;20888;-73
2021/01/07 12:04:12;;;;;;;4.13;2.60;;;22.50;52.00;;;;;;5117085;28;20173;-73
2021/01/07 12:06:45;;;;;;;4.10;2.37;;;22.60;52.00;;;;;;5116237;28;20434;-75
2021/01/07 12:09:35;;;;;;;4.93;2.70;;;22.50;52.00;;;;;;5116476;28;20784;-71
2021/01/07 12:12:06;;;;;;;4.17;2.37;;;22.60;52.00;;;;;;5116388;28;20395;-69
2021/01/07 12:15:02;;;;;;;4.40;2.27;;;22.60;52.00;;;;;;5116408;28;20391;-70
2021/01/07 12:17:27;;;;;;;3.67;2.20;;;22.60;52.00;;;;;;5098939;28;20470;-71
2021/01/07 12:19:58;;;;;;;4.10;2.20;;;22.60;52.10;;;;;;5115890;28;20772;-73
2021/01/07 12:22:24;;;;;;;3.73;2.40;;;22.60;52.10;;;;;;5116151;28;20197;-73
2021/01/07 12:24:52;;;;;;;4.50;2.47;;;22.60;52.00;;;;;;5116139;28;20391;-71
2021/01/07 12:27:19;;;;;;;2.57;2.37;;;22.60;52.00;;;;;;5114441;28;20434;-72
2021/01/07 12:29:46;;;;;;;4.70;2.60;;;22.60;52.00;;;;;;5115653;28;20983;-71
2021/01/07 12:32:30;;;;;;;3.10;2.20;;;22.60;52.00;;;;;;5115717;28;20436;-72
2021/01/07 12:35:06;;;;;;;3.37;2.07;;;22.60;52.00;;;;;;5115736;28;20391;-72
2021/01/07 12:37:49;;;;;;;3.73;2.27;;;22.60;52.00;;;;;;5115762;28;20430;-71
2021/01/07 12:40:19;;;;;;;2.50;2.00;;;22.60;52.00;;;;;;5115793;28;20857;-71
2021/01/07 12:42:54;;;;;;;4.23;2.43;;;22.60;52.10;;;;;;5114641;28;20477;-73
2021/01/07 12:45:20;;;;;;;2.90;2.13;;;22.60;52.10;;;;;;5114299;28;20414;-72
2021/01/07 12:47:46;;;;;;;5.00;2.50;;;22.60;52.00;;;;;;5115748;28;20427;-73
2021/01/07 12:50:13;;;;;;;4.10;2.07;;;22.60;52.10;;;;;;5115679;28;20666;-73
2021/01/07 12:52:39;;;;;;;2.47;2.13;;;22.60;52.00;;;;;;5115565;28;20256;-71
2021/01/07 12:55:06;;;;;;;2.53;2.10;;;22.60;52.00;;;;;;5115236;28;20800;-73
2021/01/07 12:58:21;;;;;;;3.77;3.10;;;22.60;52.00;;;;;;5114968;28;20508;-72